Time;durP1;ratioP1;P1;durP2;ratioP2;P2;SDS_P1;SDS_P2;PMS_P1;PMS_P2;Temp;Humidity;BMP_temperature;BMP_pressure;BME280_temperature;BME280_humidity;BME280_pressure;Samples;Min_cycle;Max_cycle;Signal;HPM_P1;HPM_P2
2023/09/07 00:00:10;;;;;;;9.80;7.30;;;;;;;;;;5001393;28;20121;-63
2023/09/07 00:02:56;;;;;;;13.75;9.30;;;;;;;;;;5003155;28;20072;-60
2023/09/07 00:05:50;;;;;;;19.80;10.05;;;;;;;;;;4996236;28;20140;-60
2023/09/07 00:08:37;;;;;;;19.02;9.10;;;;;;;;;;4999502;28;20046;-60
2023/09/07 00:11:33;;;;;;;11.68;8.43;;;;;;;;;;5002561;28;20053;-60
2023/09/07 00:14:20;;;;;;;15.45;7.80;;;;;;;;;;5004014;28;20177;-60
2023/09/07 00:17:14;;;;;;;10.48;7.80;;;;;;;;;;4999119;28;20497;-64
2023/09/07 00:20:09;;;;;;;15.77;8.25;;;;;;;;;;5003498;28;20073;-60
2023/09/07 00:23:02;;;;;;;12.00;7.10;;;;;;;;;;5012042;28;20058;-62
2023/09/07 00:25:56;;;;;;;11.98;8.60;;;;;;;;;;5023450;28;20471;-62
2023/09/07 00:28:50;;;;;;;10.68;8.32;;;;;;;;;;5020572;28;20061;-62
2023/09/07 00:31:44;;;;;;;12.77;8.00;;;;;;;;;;5022668;28;20713;-63
2023/09/07 00:34:31;;;;;;;9.52;7.70;;;;;;;;;;5021529;28;20049;-63
2023/09/07 00:37:25;;;;;;;11.73;8.43;;;;;;;;;;5021651;28;20085;-65
2023/09/07 00:40:12;;;;;;;12.65;8.32;;;;;;;;;;5023873;28;20053;-65
2023/09/07 00:43:06;;;;;;;14.70;9.70;;;;;;;;;;5022682;28;20063;-65
2023/09/07 00:45:54;;;;;;;20.92;9.65;;;;;;;;;;5020687;28;20111;-65
2023/09/07 00:48:47;;;;;;;16.42;7.88;;;;;;;;;;5019903;28;20049;-66
2023/09/07 00:51:35;;;;;;;163.23;18.98;;;;;;;;;;5021893;28;20145;-65
2023/09/07 00:54:30;;;;;;;148.15;15.23;;;;;;;;;;5023771;28;20506;-50
2023/09/07 00:57:16;;;;;;;148.15;20.05;;;;;;;;;;5022839;28;20057;-50
2023/09/07 01:00:10;;;;;;;95.78;18.75;;;;;;;;;;5023858;28;20594;-53
2023/09/07 01:02:57;;;;;;;201.98;32.35;;;;;;;;;;5021702;28;20116;-49
2023/09/07 01:05:53;;;;;;;60.15;19.45;;;;;;;;;;5018636;28;20057;-60
2023/09/07 01:08:43;;;;;;;50.25;18.20;;;;;;;;;;5017355;28;20413;-47
2023/09/07 01:11:38;;;;;;;85.43;24.75;;;;;;;;;;5016086;28;20073;-54
2023/09/07 01:14:25;;;;;;;58.65;21.95;;;;;;;;;;5018407;28;20045;-51
2023/09/07 01:17:21;;;;;;;46.78;21.23;;;;;;;;;;5023914;28;20099;-50
2023/09/07 01:20:09;;;;;;;54.83;26.33;;;;;;;;;;5020593;28;20143;-49
2023/09/07 01:23:09;;;;;;;49.25;24.05;;;;;;;;;;5008861;28;20062;-60
2023/09/07 01:25:56;;;;;;;49.45;23.30;;;;;;;;;;5003272;28;20050;-60
2023/09/07 01:28:50;;;;;;;62.63;26.63;;;;;;;;;;5002552;28;20054;-60
2023/09/07 01:31:37;;;;;;;45.50;24.15;;;;;;;;;;5002958;28;20489;-60
2023/09/07 01:34:31;;;;;;;33.33;20.10;;;;;;;;;;5005570;28;20049;-60
2023/09/07 01:37:25;;;;;;;35.38;16.42;;;;;;;;;;5002970;28;20054;-60
2023/09/07 01:40:19;;;;;;;33.80;18.73;;;;;;;;;;5006789;28;20425;-60
2023/09/07 01:43:06;;;;;;;31.38;18.75;;;;;;;;;;5000948;28;20116;-52
2023/09/07 01:46:00;;;;;;;32.55;18.52;;;;;;;;;;5004017;28;20054;-60
2023/09/07 01:48:47;;;;;;;42.53;21.98;;;;;;;;;;4999179;28;20045;-61
2023/09/07 01:51:41;;;;;;;39.15;22.95;;;;;;;;;;4998921;28;20521;-60
2023/09/07 01:54:35;;;;;;;38.17;21.67;;;;;;;;;;5004128;28;20510;-60
2023/09/07 01:57:22;;;;;;;45.75;23.65;;;;;;;;;;4995795;28;20061;-60
2023/09/07 02:00:16;;;;;;;43.30;25.60;;;;;;;;;;5003141;28;20132;-60
2023/09/07 02:03:04;;;;;;;52.85;28.63;;;;;;;;;;4996445;28;20166;-60
2023/09/07 02:05:58;;;;;;;53.53;29.52;;;;;;;;;;5000785;28;20050;-60
2023/09/07 02:08:52;;;;;;;56.00;29.63;;;;;;;;;;4998849;28;20050;-60
2023/09/07 02:11:46;;;;;;;60.30;30.10;;;;;;;;;;4995661;28;20054;-60
2023/09/07 02:14:40;;;;;;;54.63;28.52;;;;;;;;;;4995606;28;20054;-60
2023/09/07 02:17:27;;;;;;;58.58;28.52;;;;;;;;;;5000941;28;20046;-49
2023/09/07 02:20:21;;;;;;;48.25;24.52;;;;;;;;;;5001281;28;20058;-60
2023/09/07 02:23:08;;;;;;;51.85;26.25;;;;;;;;;;5012715;28;20125;-58
2023/09/07 02:26:02;;;;;;;60.38;27.25;;;;;;;;;;5018788;28;20124;-57
2023/09/07 02:28:49;;;;;;;66.15;32.95;;;;;;;;;;5012583;28;20054;-58
2023/09/07 02:31:43;;;;;;;66.50;33.78;;;;;;;;;;5011116;28;20115;-58
2023/09/07 02:34:31;;;;;;;67.78;33.10;;;;;;;;;;5021572;28;20046;-58
2023/09/07 02:37:24;;;;;;;70.88;34.50;;;;;;;;;;5020469;28;20057;-60
2023/09/07 02:40:11;;;;;;;67.40;32.92;;;;;;;;;;5015890;28;20734;-60
2023/09/07 02:43:05;;;;;;;68.05;33.88;;;;;;;;;;5019744;28;20138;-60
2023/09/07 02:45:52;;;;;;;65.45;31.90;;;;;;;;;;5015863;28;20049;-59
2023/09/07 02:48:46;;;;;;;69.25;34.05;;;;;;;;;;5021550;28;20053;-48
2023/09/07 02:51:33;;;;;;;66.78;33.40;;;;;;;;;;5018893;28;20108;-61
2023/09/07 02:54:27;;;;;;;61.20;32.15;;;;;;;;;;5017349;28;20048;-62
2023/09/07 02:57:14;;;;;;;81.80;36.05;;;;;;;;;;5014256;28;20061;-61
2023/09/07 03:00:09;;;;;;;67.60;32.97;;;;;;;;;;5020767;28;20045;-62
2023/09/07 03:02:55;;;;;;;52.42;28.00;;;;;;;;;;5017795;28;22170;-62
2023/09/07 03:05:49;;;;;;;74.35;33.78;;;;;;;;;;5025034;28;20106;-63
2023/09/07 03:08:37;;;;;;;70.40;34.45;;;;;;;;;;5013075;28;20049;-63
2023/09/07 03:11:33;;;;;;;60.63;29.92;;;;;;;;;;5018052;28;20563;-63
2023/09/07 03:14:18;;;;;;;80.13;36.47;;;;;;;;;;5020779;28;20114;-63
2023/09/07 03:17:12;;;;;;;55.97;27.95;;;;;;;;;;5017020;28;20073;-61
2023/09/07 03:19:59;;;;;;;75.10;36.58;;;;;;;;;;5017492;28;20059;-49
2023/09/07 03:23:00;;;;;;;76.50;35.60;;;;;;;;;;5023770;28;20053;-48
2023/09/07 03:25:47;;;;;;;85.05;36.38;;;;;;;;;;5022707;28;20135;-51
2023/09/07 03:28:41;;;;;;;76.22;36.60;;;;;;;;;;5023554;28;20120;-47
2023/09/07 03:31:28;;;;;;;76.60;36.80;;;;;;;;;;5022559;28;20049;-47
2023/09/07 03:34:22;;;;;;;94.30;39.75;;;;;;;;;;5017260;28;20644;-60
2023/09/07 03:37:11;;;;;;;94.40;39.13;;;;;;;;;;5018288;28;20068;-61
2023/09/07 03:40:05;;;;;;;77.82;34.88;;;;;;;;;;5021628;28;20472;-60
2023/09/07 03:42:50;;;;;;;87.68;37.45;;;;;;;;;;5016419;28;20065;-60
2023/09/07 03:45:44;;;;;;;80.72;36.20;;;;;;;;;;5016164;28;20327;-60
2023/09/07 03:48:31;;;;;;;81.20;36.20;;;;;;;;;;5012313;28;20049;-60
2023/09/07 03:51:25;;;;;;;101.95;40.20;;;;;;;;;;5025001;28;20842;-50
2023/09/07 03:54:12;;;;;;;91.50;38.55;;;;;;;;;;5014134;28;20064;-51
2023/09/07 03:57:06;;;;;;;80.95;32.67;;;;;;;;;;5016277;28;20627;-48
2023/09/07 04:00:00;;;;;;;95.18;38.30;;;;;;;;;;5016063;28;20139;-52
2023/09/07 04:02:54;;;;;;;77.28;35.20;;;;;;;;;;5006212;28;20089;-51
2023/09/07 04:05:50;;;;;;;85.65;34.97;;;;;;;;;;5007477;28;20061;-51
2023/09/07 04:08:38;;;;;;;78.55;35.17;;;;;;;;;;5008640;28;20066;-51
2023/09/07 04:11:32;;;;;;;97.38;37.90;;;;;;;;;;5011695;28;20107;-52
2023/09/07 04:14:19;;;;;;;81.75;34.80;;;;;;;;;;5006185;28;20049;-48
2023/09/07 04:17:13;;;;;;;87.35;35.47;;;;;;;;;;5001241;28;20428;-49
2023/09/07 04:20:00;;;;;;;79.35;33.65;;;;;;;;;;5014847;28;20052;-50
2023/09/07 04:23:00;;;;;;;72.95;32.17;;;;;;;;;;5007291;28;20184;-50
2023/09/07 04:25:48;;;;;;;60.03;30.25;;;;;;;;;;4999274;28;20108;-51
2023/09/07 04:28:42;;;;;;;64.25;29.85;;;;;;;;;;4998861;28;20053;-62
2023/09/07 04:31:29;;;;;;;63.83;32.80;;;;;;;;;;4998912;28;20565;-60
2023/09/07 04:34:23;;;;;;;85.15;35.40;;;;;;;;;;4985842;28;20511;-60
2023/09/07 04:37:10;;;;;;;66.75;34.10;;;;;;;;;;4993766;28;20221;-61
2023/09/07 04:40:06;;;;;;;45.85;25.77;;;;;;;;;;5001132;28;20054;-60
2023/09/07 04:42:54;;;;;;;56.38;26.52;;;;;;;;;;4996490;28;20502;-60
2023/09/07 04:45:47;;;;;;;51.00;26.65;;;;;;;;;;5002435;28;20493;-60
2023/09/07 04:48:34;;;;;;;36.03;21.33;;;;;;;;;;4996895;28;20065;-53
2023/09/07 04:51:28;;;;;;;32.70;19.33;;;;;;;;;;4996363;28;20049;-51
2023/09/07 04:54:16;;;;;;;37.22;21.98;;;;;;;;;;4997490;28;20101;-50
2023/09/07 04:57:09;;;;;;;41.22;23.63;;;;;;;;;;4998142;28;20122;-63
2023/09/07 04:59:56;;;;;;;42.15;23.70;;;;;;;;;;4999995;28;20136;-60
2023/09/07 05:02:50;;;;;;;46.78;22.48;;;;;;;;;;4988469;28;20485;-60
2023/09/07 05:05:38;;;;;;;38.30;21.92;;;;;;;;;;5000847;28;20060;-60
2023/09/07 05:08:32;;;;;;;38.72;20.27;;;;;;;;;;4996535;28;20458;-60
2023/09/07 05:11:19;;;;;;;38.88;22.35;;;;;;;;;;4997319;28;20083;-60
2023/09/07 05:14:13;;;;;;;38.65;20.95;;;;;;;;;;4993599;28;20481;-60
2023/09/07 05:17:00;;;;;;;37.22;21.40;;;;;;;;;;5003033;28;20072;-60
2023/09/07 05:19:54;;;;;;;33.05;19.00;;;;;;;;;;5005805;28;20498;-59
2023/09/07 05:22:48;;;;;;;37.20;20.10;;;;;;;;;;5008292;28;20536;-59
2023/09/07 05:25:51;;;;;;;28.55;19.05;;;;;;;;;;5002701;28;20513;-59
2023/09/07 05:28:37;;;;;;;33.78;18.48;;;;;;;;;;5005629;28;20054;-59
2023/09/07 05:31:31;;;;;;;26.83;16.02;;;;;;;;;;4996566;28;20096;-59
2023/09/07 05:34:19;;;;;;;27.27;15.88;;;;;;;;;;5006834;28;20479;-63
2023/09/07 05:37:12;;;;;;;24.92;15.93;;;;;;;;;;5003665;28;20057;-62
2023/09/07 05:39:59;;;;;;;18.45;13.88;;;;;;;;;;5006119;28;20049;-62
2023/09/07 05:42:53;;;;;;;21.90;14.35;;;;;;;;;;4999520;28;20481;-61
2023/09/07 05:45:41;;;;;;;25.70;13.98;;;;;;;;;;4992534;28;20089;-59
2023/09/07 05:48:35;;;;;;;31.40;15.38;;;;;;;;;;5005826;28;20068;-51
2023/09/07 05:51:23;;;;;;;21.98;12.43;;;;;;;;;;5007218;28;20144;-51
2023/09/07 05:54:17;;;;;;;16.83;11.30;;;;;;;;;;4993055;28;20073;-51
2023/09/07 05:57:04;;;;;;;21.25;12.05;;;;;;;;;;5001612;28;20120;-49
2023/09/07 05:59:58;;;;;;;20.42;10.95;;;;;;;;;;5004797;28;20144;-52
2023/09/07 06:02:46;;;;;;;16.88;10.90;;;;;;;;;;5004184;28;22692;-62
2023/09/07 06:05:40;;;;;;;23.85;11.40;;;;;;;;;;5000831;28;20478;-62
2023/09/07 06:08:27;;;;;;;18.92;11.27;;;;;;;;;;5003388;28;20058;-63
2023/09/07 06:11:21;;;;;;;20.75;9.68;;;;;;;;;;5007397;28;20092;-62
2023/09/07 06:14:08;;;;;;;15.05;9.35;;;;;;;;;;5007848;28;20053;-62
2023/09/07 06:17:02;;;;;;;16.38;9.48;;;;;;;;;;5008462;28;20054;-60
2023/09/07 06:19:49;;;;;;;16.15;9.10;;;;;;;;;;5004490;28;20168;-61
2023/09/07 06:22:50;;;;;;;16.33;9.93;;;;;;;;;;5005277;28;20057;-60
2023/09/07 06:25:44;;;;;;;16.20;9.45;;;;;;;;;;5003714;28;20053;-61
2023/09/07 06:28:37;;;;;;;20.83;9.05;;;;;;;;;;5003368;28;20128;-60
2023/09/07 06:31:31;;;;;;;14.00;8.20;;;;;;;;;;5006023;28;20065;-63
2023/09/07 06:34:18;;;;;;;14.48;8.82;;;;;;;;;;5002547;28;20418;-63
2023/09/07 06:37:12;;;;;;;18.17;9.35;;;;;;;;;;5005157;28;20053;-62
2023/09/07 06:39:59;;;;;;;12.32;8.32;;;;;;;;;;5003944;28;20054;-63
2023/09/07 06:42:53;;;;;;;13.48;8.15;;;;;;;;;;5003094;28;20081;-59
2023/09/07 06:45:41;;;;;;;13.80;7.85;;;;;;;;;;5004858;28;20065;-52
2023/09/07 06:48:34;;;;;;;16.45;7.45;;;;;;;;;;5006223;28;20589;-48
2023/09/07 06:51:21;;;;;;;17.70;7.20;;;;;;;;;;5007071;28;20050;-50
2023/09/07 06:54:15;;;;;;;14.40;7.32;;;;;;;;;;5004165;28;20092;-47
2023/09/07 06:57:08;;;;;;;12.00;6.10;;;;;;;;;;5001756;28;20054;-46
2023/09/07 07:00:05;;;;;;;11.88;6.35;;;;;;;;;;5005400;28;20533;-58
2023/09/07 07:02:50;;;;;;;11.55;5.88;;;;;;;;;;5002227;28;20521;-58
2023/09/07 07:05:44;;;;;;;12.68;6.47;;;;;;;;;;5004457;28;20112;-58
2023/09/07 07:08:31;;;;;;;10.68;6.07;;;;;;;;;;5002524;28;20518;-58
2023/09/07 07:11:25;;;;;;;10.20;5.85;;;;;;;;;;5003595;28;20588;-63
2023/09/07 07:14:12;;;;;;;10.68;5.60;;;;;;;;;;5004227;28;20112;-60
2023/09/07 07:17:06;;;;;;;10.50;5.43;;;;;;;;;;5004011;28;20058;-62
2023/09/07 07:20:00;;;;;;;10.15;5.90;;;;;;;;;;5004731;28;20071;-62
2023/09/07 07:22:54;;;;;;;17.55;6.10;;;;;;;;;;5005234;28;20047;-62
2023/09/07 07:25:55;;;;;;;8.05;5.57;;;;;;;;;;5004821;28;20676;-63
2023/09/07 07:28:42;;;;;;;14.43;5.55;;;;;;;;;;5008362;28;20045;-58
2023/09/07 07:31:36;;;;;;;9.50;5.55;;;;;;;;;;5006574;28;20050;-58
2023/09/07 07:34:24;;;;;;;13.52;5.32;;;;;;;;;;5006593;28;20057;-57
2023/09/07 07:37:17;;;;;;;10.88;5.60;;;;;;;;;;5010521;28;20060;-62
2023/09/07 07:40:04;;;;;;;11.60;5.20;;;;;;;;;;5007457;28;20525;-57
2023/09/07 07:42:58;;;;;;;9.82;5.40;;;;;;;;;;5006205;28;20054;-59
2023/09/07 07:45:45;;;;;;;7.80;4.75;;;;;;;;;;5008584;28;20046;-59
2023/09/07 07:48:39;;;;;;;11.25;5.28;;;;;;;;;;5009160;28;20049;-59
2023/09/07 07:51:33;;;;;;;14.98;5.47;;;;;;;;;;5007748;28;20071;-59
2023/09/07 07:54:28;;;;;;;8.98;5.32;;;;;;;;;;5008605;28;20058;-59
2023/09/07 07:57:20;;;;;;;10.60;4.80;;;;;;;;;;5006671;28;20108;-60
2023/09/07 08:00:07;;;;;;;7.88;3.95;;;;;;;;;;5008127;28;22177;-60
2023/09/07 08:03:07;;;;;;;6.63;3.92;;;;;;;;;;5005331;28;20058;-60
2023/09/07 08:05:55;;;;;;;5.47;3.33;;;;;;;;;;5005013;28;20062;-60
2023/09/07 08:08:48;;;;;;;5.68;3.83;;;;;;;;;;5007899;28;20046;-61
2023/09/07 08:11:15;;;;;;;5.82;3.88;;;;;;;;;;5007667;28;20054;-53
2023/09/07 08:13:46;;;;;;;8.02;4.57;;;;;;;;;;5007469;28;20046;-46
2023/09/07 08:16:20;;;;;;;8.55;4.45;;;;;;;;;;5004227;28;20050;-49
2023/09/07 08:18:48;;;;;;;7.63;4.22;;;;;;;;;;5005719;28;20132;-49
2023/09/07 08:21:15;;;;;;;12.35;4.65;;;;;;;;;;5003777;28;20068;-47
2023/09/07 08:24:00;;;;;;;8.82;4.63;;;;;;;;;;5023367;28;20143;-62
2023/09/07 08:26:27;;;;;;;9.35;4.38;;;;;;;;;;5027804;28;20073;-58
2023/09/07 08:29:05;;;;;;;8.07;4.82;;;;;;;;;;5025873;28;20390;-58
2023/09/07 08:31:38;;;;;;;8.52;4.22;;;;;;;;;;5029503;28;21350;-58
2023/09/07 08:34:13;;;;;;;8.30;4.70;;;;;;;;;;5029902;28;20237;-62
2023/09/07 08:36:40;;;;;;;10.35;4.38;;;;;;;;;;5026540;28;20049;-62
2023/09/07 08:39:14;;;;;;;8.27;4.78;;;;;;;;;;5025902;28;20184;-62
2023/09/07 08:41:43;;;;;;;5.18;4.40;;;;;;;;;;5026163;28;20049;-62
2023/09/07 08:44:38;;;;;;;8.77;4.75;;;;;;;;;;5027321;28;20056;-62
2023/09/07 08:47:32;;;;;;;8.75;4.13;;;;;;;;;;5028990;28;20046;-62
2023/09/07 08:50:26;;;;;;;12.70;4.30;;;;;;;;;;5027240;28;20140;-61
2023/09/07 08:53:13;;;;;;;9.02;4.43;;;;;;;;;;5025300;28;20058;-59
2023/09/07 08:56:09;;;;;;;8.45;4.20;;;;;;;;;;5024459;28;20051;-60
2023/09/07 08:59:01;;;;;;;13.35;4.63;;;;;;;;;;5026684;28;20126;-60
2023/09/07 09:01:58;;;;;;;8.75;4.13;;;;;;;;;;5027838;28;20118;-59
2023/09/07 09:04:45;;;;;;;6.95;4.53;;;;;;;;;;5031305;28;20102;-59
2023/09/07 09:07:39;;;;;;;7.97;4.50;;;;;;;;;;5026495;28;20057;-59
2023/09/07 09:10:26;;;;;;;7.03;4.30;;;;;;;;;;5027199;28;20416;-59
2023/09/07 09:13:27;;;;;;;8.63;4.22;;;;;;;;;;5023413;28;20054;-59
2023/09/07 09:16:15;;;;;;;7.30;4.13;;;;;;;;;;5026737;28;20064;-58
2023/09/07 09:19:09;;;;;;;9.77;4.93;;;;;;;;;;5023460;28;20049;-59
2023/09/07 09:22:00;;;;;;;7.43;4.35;;;;;;;;;;5028790;28;20722;-49
2023/09/07 09:25:04;;;;;;;7.13;4.25;;;;;;;;;;5006366;28;20505;-50
2023/09/07 09:27:50;;;;;;;6.55;3.97;;;;;;;;;;5006742;28;20069;-49
2023/09/07 09:30:44;;;;;;;9.35;4.47;;;;;;;;;;5005137;28;20046;-49
2023/09/07 09:33:33;;;;;;;7.57;4.00;;;;;;;;;;5004377;28;20419;-59
2023/09/07 09:36:33;;;;;;;9.30;4.05;;;;;;;;;;5005293;28;20050;-48
2023/09/07 09:39:27;;;;;;;9.75;4.13;;;;;;;;;;4998416;28;20061;-47
2023/09/07 09:42:21;;;;;;;7.85;4.38;;;;;;;;;;5004131;28;20445;-48
2023/09/07 09:45:09;;;;;;;6.07;3.97;;;;;;;;;;5006463;28;20074;-46
2023/09/07 09:48:03;;;;;;;8.10;4.00;;;;;;;;;;5010126;28;20122;-47
2023/09/07 09:50:51;;;;;;;8.45;3.50;;;;;;;;;;5007447;28;20058;-59
2023/09/07 09:53:45;;;;;;;5.35;3.78;;;;;;;;;;5006684;28;20050;-57
2023/09/07 09:56:33;;;;;;;8.45;3.83;;;;;;;;;;5001817;28;20140;-58
2023/09/07 09:59:26;;;;;;;6.07;3.60;;;;;;;;;;4995640;28;20050;-61
2023/09/07 10:02:13;;;;;;;7.07;3.90;;;;;;;;;;5004075;28;20112;-50
2023/09/07 10:05:09;;;;;;;9.63;4.22;;;;;;;;;;5005207;28;20049;-60
2023/09/07 10:08:02;;;;;;;5.95;3.70;;;;;;;;;;5006174;28;20049;-60
2023/09/07 10:10:54;;;;;;;8.45;4.00;;;;;;;;;;5004915;28;20064;-60
2023/09/07 10:13:41;;;;;;;8.60;3.83;;;;;;;;;;5005135;28;20462;-60
2023/09/07 10:16:45;;;;;;;5.53;3.70;;;;;;;;;;5005674;28;20057;-60
2023/09/07 10:19:33;;;;;;;8.25;3.42;;;;;;;;;;5005261;28;20492;-54
2023/09/07 10:22:33;;;;;;;10.40;3.55;;;;;;;;;;4995445;28;20077;-50
2023/09/07 10:25:31;;;;;;;8.52;3.53;;;;;;;;;;4994354;28;20218;-50
2023/09/07 10:28:25;;;;;;;9.02;3.72;;;;;;;;;;5001215;28;20058;-61
2023/09/07 10:31:15;;;;;;;5.40;3.42;;;;;;;;;;5004482;28;20107;-62
2023/09/07 10:34:22;;;;;;;7.63;3.55;;;;;;;;;;5004793;28;20057;-62
2023/09/07 10:37:10;;;;;;;8.10;3.33;;;;;;;;;;5005795;28;20049;-62
2023/09/07 10:40:03;;;;;;;6.15;3.83;;;;;;;;;;5002795;28;20638;-62
2023/09/07 10:42:49;;;;;;;7.43;3.50;;;;;;;;;;5005280;28;20528;-62
2023/09/07 10:45:45;;;;;;;6.40;3.50;;;;;;;;;;5004541;28;20046;-62
2023/09/07 10:48:34;;;;;;;6.90;3.83;;;;;;;;;;5002482;28;20058;-60
2023/09/07 10:51:29;;;;;;;11.35;3.80;;;;;;;;;;5002451;28;20112;-62
2023/09/07 10:54:22;;;;;;;5.88;3.22;;;;;;;;;;5004950;28;20058;-62
2023/09/07 10:57:19;;;;;;;6.60;3.30;;;;;;;;;;5003272;28;20112;-61
2023/09/07 11:00:10;;;;;;;6.15;3.42;;;;;;;;;;5005347;28;20049;-61
2023/09/07 11:03:00;;;;;;;6.88;3.63;;;;;;;;;;5005338;28;20469;-60
2023/09/07 11:05:48;;;;;;;6.47;3.72;;;;;;;;;;4992169;28;20069;-60
2023/09/07 11:08:42;;;;;;;8.75;3.25;;;;;;;;;;5003453;28;20050;-61
2023/09/07 11:11:30;;;;;;;9.52;3.20;;;;;;;;;;5001868;28;20124;-60
2023/09/07 11:14:29;;;;;;;5.05;3.13;;;;;;;;;;4999861;28;20049;-61
2023/09/07 11:17:17;;;;;;;5.43;3.50;;;;;;;;;;5001749;28;20085;-61
2023/09/07 11:20:10;;;;;;;6.60;3.47;;;;;;;;;;5003520;28;20128;-61
2023/09/07 11:23:04;;;;;;;6.75;3.63;;;;;;;;;;5006341;28;20201;-61
2023/09/07 11:25:58;;;;;;;6.72;3.17;;;;;;;;;;5001500;28;20072;-60
2023/09/07 11:28:52;;;;;;;6.15;3.20;;;;;;;;;;5005729;28;20052;-52
2023/09/07 11:31:46;;;;;;;6.30;3.22;;;;;;;;;;5007483;28;20502;-49
2023/09/07 11:34:33;;;;;;;4.78;3.50;;;;;;;;;;5006656;28;20053;-48
2023/09/07 11:37:27;;;;;;;4.72;3.20;;;;;;;;;;5004039;28;20517;-48
2023/09/07 11:40:15;;;;;;;4.93;3.13;;;;;;;;;;5001394;28;20058;-48
2023/09/07 11:43:08;;;;;;;4.85;3.13;;;;;;;;;;5001578;28;20054;-50
2023/09/07 11:45:55;;;;;;;6.90;3.40;;;;;;;;;;5004108;28;20139;-47
2023/09/07 11:48:50;;;;;;;9.43;3.30;;;;;;;;;;5000301;28;20184;-52
2023/09/07 11:51:37;;;;;;;6.47;3.30;;;;;;;;;;5001079;28;20060;-51
2023/09/07 11:54:31;;;;;;;10.38;3.33;;;;;;;;;;5000941;28;20496;-60
2023/09/07 11:57:18;;;;;;;6.50;3.60;;;;;;;;;;4998889;28;20057;-62
2023/09/07 12:00:12;;;;;;;9.15;3.58;;;;;;;;;;5001426;28;20042;-61
2023/09/07 12:02:59;;;;;;;5.13;3.47;;;;;;;;;;5003978;28;20553;-62
2023/09/07 12:05:53;;;;;;;6.05;3.35;;;;;;;;;;5007611;28;20057;-62
2023/09/07 12:08:43;;;;;;;6.47;3.53;;;;;;;;;;5005306;28;20046;-62
2023/09/07 12:11:36;;;;;;;6.18;3.33;;;;;;;;;;5005643;28;20446;-61
2023/09/07 12:14:24;;;;;;;5.22;3.10;;;;;;;;;;5005289;28;20062;-61
2023/09/07 12:17:19;;;;;;;11.68;3.35;;;;;;;;;;5008775;28;20054;-61
2023/09/07 12:20:13;;;;;;;5.10;3.33;;;;;;;;;;5007643;28;20112;-61
2023/09/07 12:23:18;;;;;;;6.03;3.38;;;;;;;;;;5006364;28;20133;-62
2023/09/07 12:26:14;;;;;;;5.97;3.00;;;;;;;;;;5005845;28;20050;-51
2023/09/07 12:29:07;;;;;;;5.47;3.40;;;;;;;;;;5010238;28;20046;-52
2023/09/07 12:31:55;;;;;;;7.43;3.45;;;;;;;;;;5008097;28;20052;-53
2023/09/07 12:34:53;;;;;;;6.68;3.05;;;;;;;;;;4997045;28;20085;-50
2023/09/07 12:37:36;;;;;;;5.60;3.28;;;;;;;;;;4999655;28;20081;-52
2023/09/07 12:40:30;;;;;;;7.85;3.10;;;;;;;;;;5002753;28;20668;-51
2023/09/07 12:43:18;;;;;;;5.88;2.97;;;;;;;;;;5005979;28;20129;-50
2023/09/07 12:46:12;;;;;;;5.75;3.13;;;;;;;;;;5004722;28;20054;-52
2023/09/07 12:48:58;;;;;;;6.25;3.28;;;;;;;;;;5003052;28;20054;-48
2023/09/07 12:51:52;;;;;;;5.15;3.40;;;;;;;;;;4983313;28;20042;-48
2023/09/07 12:54:39;;;;;;;5.32;3.00;;;;;;;;;;4999532;28;20299;-61
2023/09/07 12:57:34;;;;;;;10.95;3.50;;;;;;;;;;4995429;28;20057;-61
2023/09/07 13:00:20;;;;;;;6.38;3.00;;;;;;;;;;5005323;28;20058;-60
2023/09/07 13:03:15;;;;;;;8.07;3.25;;;;;;;;;;5005242;28;20105;-60
2023/09/07 13:06:08;;;;;;;6.90;3.22;;;;;;;;;;5006875;28;20125;-61
2023/09/07 13:09:04;;;;;;;4.85;2.70;;;;;;;;;;5003648;28;20053;-52
2023/09/07 13:11:49;;;;;;;5.78;2.97;;;;;;;;;;5004089;28;20145;-51
2023/09/07 13:14:43;;;;;;;3.42;2.63;;;;;;;;;;4998455;28;20046;-50
2023/09/07 13:17:30;;;;;;;4.78;3.22;;;;;;;;;;5003619;28;20108;-48
2023/09/07 13:20:24;;;;;;;5.75;2.95;;;;;;;;;;5002183;28;20092;-47
2023/09/07 13:23:26;;;;;;;5.90;2.85;;;;;;;;;;5007155;28;20049;-61
2023/09/07 13:26:26;;;;;;;4.50;3.03;;;;;;;;;;5006906;28;20053;-61
2023/09/07 13:29:13;;;;;;;4.97;3.20;;;;;;;;;;5008319;28;20053;-61
2023/09/07 13:32:07;;;;;;;7.00;3.15;;;;;;;;;;5006281;28;20046;-61
2023/09/07 13:34:54;;;;;;;6.07;2.95;;;;;;;;;;5007632;28;20054;-61
2023/09/07 13:37:48;;;;;;;7.35;3.10;;;;;;;;;;5011212;28;20414;-58
2023/09/07 13:40:35;;;;;;;7.60;3.05;;;;;;;;;;5005227;28;20120;-59
2023/09/07 13:43:29;;;;;;;7.30;3.00;;;;;;;;;;5008253;28;20095;-58
2023/09/07 13:46:17;;;;;;;7.35;2.90;;;;;;;;;;5005281;28;20086;-59
2023/09/07 13:49:10;;;;;;;5.63;3.03;;;;;;;;;;5002594;28;20144;-62
2023/09/07 13:51:58;;;;;;;5.27;2.90;;;;;;;;;;5007012;28;20063;-52
2023/09/07 13:54:51;;;;;;;5.82;3.00;;;;;;;;;;5004311;28;20111;-50
2023/09/07 13:57:38;;;;;;;5.95;3.03;;;;;;;;;;4996436;28;20128;-50
2023/09/07 14:00:32;;;;;;;7.00;2.92;;;;;;;;;;5002077;28;20115;-51
2023/09/07 14:03:19;;;;;;;5.43;2.60;;;;;;;;;;5004316;28;20057;-49
2023/09/07 14:06:13;;;;;;;5.32;3.13;;;;;;;;;;5006065;28;20054;-62
2023/09/07 14:09:07;;;;;;;6.95;2.90;;;;;;;;;;5002843;28;20062;-62
2023/09/07 14:12:01;;;;;;;6.18;3.22;;;;;;;;;;5003816;28;20084;-62
2023/09/07 14:14:50;;;;;;;6.78;2.92;;;;;;;;;;5004654;28;20449;-62
2023/09/07 14:17:43;;;;;;;10.88;3.50;;;;;;;;;;5005538;28;20065;-61
2023/09/07 14:20:30;;;;;;;5.60;2.80;;;;;;;;;;5002961;28;20049;-61
2023/09/07 14:23:37;;;;;;;7.30;3.17;;;;;;;;;;4999133;28;20058;-61
2023/09/07 14:26:31;;;;;;;4.45;2.90;;;;;;;;;;5002587;28;20053;-61
2023/09/07 14:29:05;;;;;;;4.45;2.95;;;;;;;;;;4999885;28;20108;-61
2023/09/07 14:31:53;;;;;;;5.65;2.72;;;;;;;;;;4999468;28;20139;-61
2023/09/07 14:34:46;;;;;;;4.65;2.75;;;;;;;;;;5004185;28;20572;-58
2023/09/07 14:37:33;;;;;;;4.88;2.90;;;;;;;;;;5005519;28;20058;-61
2023/09/07 14:40:27;;;;;;;4.90;2.50;;;;;;;;;;4994973;28;20066;-61
2023/09/07 14:43:14;;;;;;;4.72;2.90;;;;;;;;;;5004615;28;20942;-61
2023/09/07 14:46:08;;;;;;;5.13;2.83;;;;;;;;;;5003308;28;20417;-61
2023/09/07 14:48:57;;;;;;;9.20;3.00;;;;;;;;;;5004428;28;20058;-61
2023/09/07 14:51:49;;;;;;;10.10;3.15;;;;;;;;;;5003989;28;20068;-61
2023/09/07 14:54:41;;;;;;;6.00;2.75;;;;;;;;;;5001193;28;20510;-63
2023/09/07 14:57:33;;;;;;;5.72;2.55;;;;;;;;;;5000193;28;20057;-63
2023/09/07 15:00:22;;;;;;;6.95;2.90;;;;;;;;;;5003987;28;20062;-62
2023/09/07 15:03:14;;;;;;;7.30;2.90;;;;;;;;;;5001856;28;20109;-62
2023/09/07 15:06:01;;;;;;;7.32;3.00;;;;;;;;;;5006061;28;20119;-47
2023/09/07 15:08:57;;;;;;;5.45;2.67;;;;;;;;;;5003480;28;20050;-50
2023/09/07 15:11:44;;;;;;;5.75;2.80;;;;;;;;;;5008994;28;20498;-53
2023/09/07 15:14:38;;;;;;;7.80;3.00;;;;;;;;;;5002829;28;20050;-49
2023/09/07 15:17:25;;;;;;;4.47;2.83;;;;;;;;;;5004812;28;20102;-51
2023/09/07 15:20:18;;;;;;;6.05;2.90;;;;;;;;;;5002378;28;20612;-52
2023/09/07 15:23:15;;;;;;;6.63;2.60;;;;;;;;;;5002629;28;20064;-62
2023/09/07 15:26:15;;;;;;;7.75;2.90;;;;;;;;;;5002873;28;22192;-61
2023/09/07 15:29:04;;;;;;;10.13;3.00;;;;;;;;;;5004726;28;20464;-61
2023/09/07 15:31:57;;;;;;;5.00;3.38;;;;;;;;;;5005076;28;20506;-48
2023/09/07 15:34:45;;;;;;;6.60;2.72;;;;;;;;;;5006320;28;20050;-47
2023/09/07 15:37:40;;;;;;;5.25;3.03;;;;;;;;;;5002078;28;20164;-45
2023/09/07 15:40:32;;;;;;;4.38;2.92;;;;;;;;;;5003500;28;20141;-49
2023/09/07 15:43:26;;;;;;;5.05;2.90;;;;;;;;;;5005824;28;20108;-52
2023/09/07 15:46:13;;;;;;;4.30;2.80;;;;;;;;;;5003122;28;20058;-49
2023/09/07 15:49:08;;;;;;;9.40;3.20;;;;;;;;;;5004030;28;20104;-52
2023/09/07 15:52:01;;;;;;;4.43;2.80;;;;;;;;;;5003515;28;20137;-47
2023/09/07 15:54:55;;;;;;;5.38;3.10;;;;;;;;;;5003385;28;20054;-50
2023/09/07 15:57:43;;;;;;;5.82;3.17;;;;;;;;;;5001818;28;20402;-46
2023/09/07 16:00:37;;;;;;;5.35;3.13;;;;;;;;;;5001581;28;20045;-62
2023/09/07 16:03:31;;;;;;;8.13;3.17;;;;;;;;;;4999813;28;20062;-47
2023/09/07 16:06:18;;;;;;;6.35;3.00;;;;;;;;;;4997391;28;20057;-52
2023/09/07 16:09:12;;;;;;;6.88;3.20;;;;;;;;;;4999121;28;20132;-51
2023/09/07 16:11:59;;;;;;;6.15;2.83;;;;;;;;;;5000996;28;20050;-52
2023/09/07 16:14:53;;;;;;;4.68;2.92;;;;;;;;;;5002646;28;20050;-49
2023/09/07 16:17:47;;;;;;;6.82;3.08;;;;;;;;;;5005190;28;20409;-49
2023/09/07 16:20:15;;;;;;;6.55;3.70;;;;;;;;;;4995457;28;20058;-50
2023/09/07 16:23:23;;;;;;;9.07;4.30;;;;;;;;;;4994665;28;20412;-52
2023/09/07 16:26:17;;;;;;;10.07;4.13;;;;;;;;;;5017375;28;20083;-46
2023/09/07 16:29:11;;;;;;;7.32;4.07;;;;;;;;;;5021814;28;20053;-46
2023/09/07 16:31:59;;;;;;;11.60;4.00;;;;;;;;;;5023257;28;20057;-58
2023/09/07 16:34:32;;;;;;;5.72;4.32;;;;;;;;;;5008617;28;20430;-57
2023/09/07 16:37:00;;;;;;;6.68;4.20;;;;;;;;;;5015971;28;20132;-58
2023/09/07 16:39:54;;;;;;;8.57;3.92;;;;;;;;;;5020533;28;20073;-57
2023/09/07 16:42:21;;;;;;;8.10;3.88;;;;;;;;;;5003958;28;20061;-57
2023/09/07 16:45:15;;;;;;;7.82;4.68;;;;;;;;;;4992230;28;20513;-57
2023/09/07 16:48:02;;;;;;;8.52;4.63;;;;;;;;;;5009842;28;20053;-60
2023/09/07 16:50:58;;;;;;;6.75;4.10;;;;;;;;;;5012913;28;20072;-54